Time;durP1;ratioP1;P1;durP2;ratioP2;P2;SDS_P1;SDS_P2;PMS_P1;PMS_P2;Temp;Humidity;BMP_temperature;BMP_pressure;BME280_temperature;BME280_humidity;BME280_pressure;Samples;Min_cycle;Max_cycle;Signal;HPM_P1;HPM_P2
2022/11/25 00:01:52;;;;;;;11.15;3.05;;;;;;;;;;5024238;28;20052;-62
2022/11/25 00:04:22;;;;;;;7.55;2.33;;;;;;;;;;5030105;28;20049;-62
2022/11/25 00:06:52;;;;;;;6.53;1.75;;;;;;;;;;5030286;28;20057;-61
2022/11/25 00:09:23;;;;;;;4.53;1.90;;;;;;;;;;5030360;28;20054;-62
2022/11/25 00:11:54;;;;;;;6.20;2.15;;;;;;;;;;5030661;28;20448;-61
2022/11/25 00:14:24;;;;;;;7.30;2.17;;;;;;;;;;4981466;28;20057;-61
2022/11/25 00:16:54;;;;;;;5.28;2.13;;;;;;;;;;4964862;28;20053;-61
2022/11/25 00:19:24;;;;;;;5.15;1.85;;;;;;;;;;4997854;28;20076;-62
2022/11/25 00:21:54;;;;;;;4.65;1.80;;;;;;;;;;4997567;28;20068;-61
2022/11/25 00:24:24;;;;;;;5.60;1.63;;;;;;;;;;5030233;28;20113;-64
2022/11/25 00:26:54;;;;;;;3.55;1.80;;;;;;;;;;5029887;28;20186;-61
2022/11/25 00:29:24;;;;;;;5.82;2.08;;;;;;;;;;5030891;28;20406;-61
2022/11/25 00:31:54;;;;;;;6.78;2.70;;;;;;;;;;5029912;28;20394;-62
2022/11/25 00:34:24;;;;;;;6.10;1.83;;;;;;;;;;5030025;28;20532;-61
2022/11/25 00:36:55;;;;;;;4.80;2.13;;;;;;;;;;5030282;28;20054;-62
2022/11/25 00:39:26;;;;;;;5.03;2.30;;;;;;;;;;5006303;28;20849;-61
2022/11/25 00:44:44;;;;;;;8.05;2.30;;;;;;;;;;5010389;28;20049;-61
2022/11/25 00:47:17;;;;;;;6.03;2.50;;;;;;;;;;5010064;28;20411;-61
2022/11/25 00:49:53;;;;;;;7.18;2.22;;;;;;;;;;5010032;28;20505;-61
2022/11/25 00:52:26;;;;;;;5.68;2.00;;;;;;;;;;5009957;28;20057;-62
2022/11/25 00:54:56;;;;;;;4.60;2.10;;;;;;;;;;5009969;28;20061;-61
2022/11/25 00:57:26;;;;;;;4.80;2.15;;;;;;;;;;4973639;28;20065;-62
2022/11/25 00:59:56;;;;;;;8.02;2.30;;;;;;;;;;4942020;28;20054;-62
2022/11/25 01:02:26;;;;;;;11.27;2.38;;;;;;;;;;4942096;28;20051;-61
2022/11/25 01:04:56;;;;;;;5.57;2.30;;;;;;;;;;4990133;28;20058;-63
2022/11/25 01:07:27;;;;;;;9.50;3.38;;;;;;;;;;4989668;28;20061;-62
2022/11/25 01:09:57;;;;;;;7.85;2.10;;;;;;;;;;4970754;28;20054;-61
2022/11/25 01:12:28;;;;;;;7.93;2.92;;;;;;;;;;4970200;28;20057;-62
2022/11/25 01:14:59;;;;;;;6.60;2.90;;;;;;;;;;4970670;28;20500;-63
2022/11/25 01:17:29;;;;;;;9.48;2.53;;;;;;;;;;4970714;28;20554;-62
2022/11/25 01:19:59;;;;;;;4.95;2.13;;;;;;;;;;4970657;28;20058;-62
2022/11/25 01:22:29;;;;;;;12.57;2.25;;;;;;;;;;4991209;28;20449;-61
2022/11/25 01:24:59;;;;;;;5.18;2.63;;;;;;;;;;5009455;28;20070;-62
2022/11/25 01:27:29;;;;;;;5.85;2.03;;;;;;;;;;4976480;28;20077;-61
2022/11/25 01:29:59;;;;;;;13.00;2.60;;;;;;;;;;5009484;28;20061;-61
2022/11/25 01:32:29;;;;;;;8.52;2.03;;;;;;;;;;5018212;28;20085;-62
2022/11/25 01:34:59;;;;;;;6.10;2.65;;;;;;;;;;4988962;28;20181;-61
2022/11/25 01:37:31;;;;;;;9.10;2.30;;;;;;;;;;4989471;28;20062;-62
2022/11/25 01:40:03;;;;;;;;;;;;;;;;;;4939051;28;20050;-62
2022/11/25 01:42:34;;;;;;;7.03;2.72;;;;;;;;;;4950858;28;19922;-61
2022/11/25 01:45:34;;;;;;;9.05;2.80;;;;;;;;;;4919138;28;20059;-61
2022/11/25 01:48:27;;;;;;;10.45;2.60;;;;;;;;;;4931871;28;20067;-62
2022/11/25 01:50:58;;;;;;;6.43;2.35;;;;;;;;;;4941020;28;20066;-62
2022/11/25 01:53:29;;;;;;;6.95;2.60;;;;;;;;;;4989438;28;20051;-61
2022/11/25 01:56:02;;;;;;;9.13;2.53;;;;;;;;;;4957066;28;20050;-62
2022/11/25 01:58:36;;;;;;;5.38;2.78;;;;;;;;;;4969952;28;20415;-61
2022/11/25 02:01:06;;;;;;;;;;;;;;;;;;4938697;28;20519;-63
2022/11/25 02:03:42;;;;;;;8.50;2.50;;;;;;;;;;4969709;28;19922;-61
2022/11/25 02:06:24;;;;;;;11.98;3.42;;;;;;;;;;4969620;28;20062;-61
2022/11/25 02:09:06;;;;;;;7.68;2.67;;;;;;;;;;4950126;28;20051;-61
2022/11/25 02:11:41;;;;;;;6.85;2.90;;;;;;;;;;4929481;29;20047;-61
2022/11/25 02:14:14;;;;;;;9.48;2.75;;;;;;;;;;4930865;29;20074;-61
2022/11/25 02:16:44;;;;;;;8.95;3.33;;;;;;;;;;4932751;28;20787;-61
2022/11/25 02:19:31;;;;;;;10.35;2.72;;;;;;;;;;4920141;28;20063;-61
2022/11/25 02:22:04;;;;;;;10.98;3.47;;;;;;;;;;4953820;28;20077;-61
2022/11/25 02:24:50;;;;;;;9.85;3.00;;;;;;;;;;4950122;28;20438;-61
2022/11/25 02:27:21;;;;;;;10.73;3.45;;;;;;;;;;4949806;28;20463;-61
2022/11/25 02:29:52;;;;;;;8.55;2.83;;;;;;;;;;4950155;28;20067;-61
2022/11/25 02:32:23;;;;;;;11.63;3.90;;;;;;;;;;4896786;29;20052;-61
2022/11/25 02:34:53;;;;;;;7.68;2.50;;;;;;;;;;4950007;28;20043;-61
2022/11/25 02:37:24;;;;;;;8.82;3.40;;;;;;;;;;4969332;28;20445;-61
2022/11/25 02:39:54;;;;;;;7.22;3.25;;;;;;;;;;4969476;28;20071;-61
2022/11/25 02:42:27;;;;;;;10.02;2.30;;;;;;;;;;4988408;28;20062;-61
2022/11/25 02:44:58;;;;;;;6.90;2.50;;;;;;;;;;4921818;28;20105;-61
2022/11/25 02:47:29;;;;;;;7.55;2.10;;;;;;;;;;4973209;28;20055;-61
2022/11/25 02:49:59;;;;;;;5.53;2.50;;;;;;;;;;4988423;28;20058;-61
2022/11/25 02:52:30;;;;;;;12.18;2.42;;;;;;;;;;4992732;28;20058;-62
2022/11/25 02:55:00;;;;;;;6.03;1.88;;;;;;;;;;4987746;28;20050;-61
2022/11/25 02:57:30;;;;;;;6.50;2.45;;;;;;;;;;4934394;29;20047;-63
2022/11/25 03:00:01;;;;;;;11.57;2.80;;;;;;;;;;4953507;29;20186;-61
2022/11/25 03:02:31;;;;;;;7.35;2.80;;;;;;;;;;4918341;29;20055;-62
2022/11/25 03:05:02;;;;;;;5.57;2.67;;;;;;;;;;4905042;29;20052;-62
2022/11/25 03:07:32;;;;;;;7.68;2.33;;;;;;;;;;4933902;29;20725;-62
2022/11/25 03:10:03;;;;;;;6.20;2.67;;;;;;;;;;4953112;28;20051;-62
2022/11/25 03:12:34;;;;;;;10.80;2.13;;;;;;;;;;4953029;28;20051;-61
2022/11/25 03:15:05;;;;;;;5.53;1.98;;;;;;;;;;4915089;29;20064;-61
2022/11/25 03:17:37;;;;;;;8.15;2.00;;;;;;;;;;4915470;29;20060;-62
2022/11/25 03:20:08;;;;;;;6.93;2.42;;;;;;;;;;4915219;29;20527;-62
2022/11/25 03:22:39;;;;;;;7.63;2.47;;;;;;;;;;4915129;29;20059;-61
2022/11/25 03:25:11;;;;;;;11.93;2.67;;;;;;;;;;4914990;29;20063;-61
2022/11/25 03:27:42;;;;;;;5.10;2.35;;;;;;;;;;4914670;29;20052;-62
2022/11/25 03:30:16;;;;;;;8.45;2.28;;;;;;;;;;4914619;29;20059;-62
2022/11/25 03:32:48;;;;;;;8.80;2.65;;;;;;;;;;4925319;29;20676;-62
2022/11/25 03:35:19;;;;;;;6.57;2.35;;;;;;;;;;4923020;29;20064;-62
2022/11/25 03:37:50;;;;;;;8.18;2.47;;;;;;;;;;4895898;29;20056;-62
2022/11/25 03:40:20;;;;;;;13.57;2.85;;;;;;;;;;4905669;29;20104;-62
2022/11/25 03:42:50;;;;;;;7.55;3.47;;;;;;;;;;4910363;29;20056;-62
2022/11/25 03:45:20;;;;;;;5.95;2.50;;;;;;;;;;4903488;29;20045;-62
2022/11/25 03:47:50;;;;;;;11.63;2.92;;;;;;;;;;4895671;29;20212;-62
2022/11/25 03:50:21;;;;;;;5.82;2.50;;;;;;;;;;4885751;29;20131;-62
2022/11/25 03:52:51;;;;;;;4.93;2.10;;;;;;;;;;4875788;29;20049;-62
2022/11/25 03:55:21;;;;;;;7.20;2.30;;;;;;;;;;4895386;29;20059;-62
2022/11/25 03:57:51;;;;;;;9.80;2.33;;;;;;;;;;4894754;29;20057;-61
2022/11/25 04:00:21;;;;;;;7.22;2.80;;;;;;;;;;4904796;29;20097;-64
2022/11/25 04:02:58;;;;;;;11.05;3.38;;;;;;;;;;4884643;29;20475;-62
2022/11/25 04:05:32;;;;;;;7.15;2.30;;;;;;;;;;4876356;29;20538;-62
2022/11/25 04:08:07;;;;;;;6.85;2.90;;;;;;;;;;4873343;29;20065;-62
2022/11/25 04:10:38;;;;;;;10.25;2.38;;;;;;;;;;4894917;29;20071;-62
2022/11/25 04:13:11;;;;;;;9.63;2.65;;;;;;;;;;4913628;29;20063;-62
2022/11/25 04:15:50;;;;;;;10.15;2.60;;;;;;;;;;4861227;29;20060;-62
2022/11/25 04:18:22;;;;;;;7.75;2.50;;;;;;;;;;4913951;29;20044;-62
2022/11/25 04:20:55;;;;;;;11.95;3.15;;;;;;;;;;4888943;29;20454;-64
2022/11/25 04:23:26;;;;;;;8.43;2.53;;;;;;;;;;4913191;29;20056;-62
2022/11/25 04:26:00;;;;;;;5.25;2.25;;;;;;;;;;4913662;29;20067;-62
2022/11/25 04:28:38;;;;;;;6.15;2.53;;;;;;;;;;4871945;29;20054;-62
2022/11/25 04:31:08;;;;;;;7.60;2.50;;;;;;;;;;4871994;29;20061;-62
2022/11/25 04:33:42;;;;;;;8.00;2.47;;;;;;;;;;4880461;29;20068;-62
2022/11/25 04:36:21;;;;;;;;;;;;;;;;;;4864230;29;20532;-63
2022/11/25 04:38:51;;;;;;;7.97;2.42;;;;;;;;;;4878978;29;20443;-62
2022/11/25 04:41:23;;;;;;;7.05;2.47;;;;;;;;;;4895523;29;20576;-63
2022/11/25 04:43:53;;;;;;;11.65;2.90;;;;;;;;;;4890663;29;20060;-62
2022/11/25 04:46:26;;;;;;;7.72;3.20;;;;;;;;;;4899324;29;20429;-63
2022/11/25 04:48:56;;;;;;;6.65;2.35;;;;;;;;;;4881887;29;20045;-63
2022/11/25 04:51:27;;;;;;;6.78;2.60;;;;;;;;;;4875631;29;20509;-64
2022/11/25 04:54:01;;;;;;;9.77;2.42;;;;;;;;;;4857110;29;20530;-63
2022/11/25 04:56:32;;;;;;;9.77;3.20;;;;;;;;;;4881315;29;20068;-62
2022/11/25 05:01:53;;;;;;;9.90;2.60;;;;;;;;;;4882845;29;20056;-62
2022/11/25 05:04:30;;;;;;;7.00;3.00;;;;;;;;;;4878327;29;20715;-63
2022/11/25 05:07:01;;;;;;;11.98;2.45;;;;;;;;;;4870878;29;20494;-63
2022/11/25 05:09:31;;;;;;;5.60;2.50;;;;;;;;;;4893116;29;20048;-63
2022/11/25 05:12:12;;;;;;;8.55;3.03;;;;;;;;;;4913053;29;20056;-62
2022/11/25 05:14:43;;;;;;;11.82;2.58;;;;;;;;;;4934654;29;20062;-62
2022/11/25 05:17:18;;;;;;;7.20;2.53;;;;;;;;;;4955295;28;20051;-63
2022/11/25 05:19:51;;;;;;;4.47;2.30;;;;;;;;;;4969802;28;20059;-64
2022/11/25 05:22:25;;;;;;;9.68;2.55;;;;;;;;;;4985822;28;20058;-63
2022/11/25 05:24:56;;;;;;;8.30;2.80;;;;;;;;;;4924669;29;20058;-63
2022/11/25 05:27:27;;;;;;;5.43;2.33;;;;;;;;;;4922079;29;20047;-63
2022/11/25 05:30:02;;;;;;;7.57;2.88;;;;;;;;;;4950366;29;20043;-63
2022/11/25 05:32:33;;;;;;;6.30;2.42;;;;;;;;;;4950898;29;20059;-63
2022/11/25 05:35:08;;;;;;;8.27;2.55;;;;;;;;;;4906053;29;20062;-63
2022/11/25 05:37:40;;;;;;;7.70;2.90;;;;;;;;;;4934132;29;20493;-63
2022/11/25 05:40:11;;;;;;;6.47;2.40;;;;;;;;;;4907540;28;20048;-63
2022/11/25 05:43:00;;;;;;;5.93;2.30;;;;;;;;;;4920052;29;20063;-62
2022/11/25 05:45:33;;;;;;;9.25;2.42;;;;;;;;;;4931436;29;20048;-62
2022/11/25 05:48:05;;;;;;;6.95;2.50;;;;;;;;;;4950327;29;20051;-63
2022/11/25 05:50:37;;;;;;;7.45;2.20;;;;;;;;;;4922188;29;20047;-63
2022/11/25 05:53:20;;;;;;;5.90;2.63;;;;;;;;;;4933412;29;20052;-63
2022/11/25 05:56:01;;;;;;;5.72;2.40;;;;;;;;;;4931187;28;20060;-63
2022/11/25 05:58:59;;;;;;;7.97;2.70;;;;;;;;;;4912859;29;20563;-63
2022/11/25 06:01:45;;;;;;;10.43;2.38;;;;;;;;;;4912258;29;20052;-63
2022/11/25 06:04:15;;;;;;;6.20;2.47;;;;;;;;;;4928302;29;20508;-62
2022/11/25 06:06:45;;;;;;;7.45;2.33;;;;;;;;;;4910003;29;20133;-63
2022/11/25 06:09:15;;;;;;;7.68;2.67;;;;;;;;;;4911975;29;20060;-63
2022/11/25 06:11:46;;;;;;;11.45;2.63;;;;;;;;;;4946363;29;20051;-62
2022/11/25 06:14:19;;;;;;;8.50;2.60;;;;;;;;;;4882935;29;20060;-63
2022/11/25 06:16:52;;;;;;;7.75;2.95;;;;;;;;;;4893047;29;20607;-63
2022/11/25 06:19:32;;;;;;;13.65;2.75;;;;;;;;;;4912048;29;20056;-63
2022/11/25 06:22:03;;;;;;;5.35;2.35;;;;;;;;;;4917066;29;20060;-63
2022/11/25 06:24:33;;;;;;;5.10;2.22;;;;;;;;;;4905654;29;20048;-63
2022/11/25 06:27:07;;;;;;;6.13;2.35;;;;;;;;;;4936851;29;20074;-63
2022/11/25 06:29:39;;;;;;;5.95;2.60;;;;;;;;;;4937034;29;20428;-63
2022/11/25 06:32:11;;;;;;;;;;;;;;;;;;4937474;29;20063;-63
2022/11/25 06:34:52;;;;;;;5.15;2.08;;;;;;;;;;4918100;29;19923;-63
2022/11/25 06:37:43;;;;;;;8.10;2.00;;;;;;;;;;4956564;28;20058;-63
2022/11/25 06:40:13;;;;;;;7.85;2.40;;;;;;;;;;4924474;29;20051;-64
2022/11/25 06:42:43;;;;;;;5.70;2.38;;;;;;;;;;4921783;29;20583;-63
2022/11/25 06:45:13;;;;;;;8.05;2.70;;;;;;;;;;4921607;29;20111;-64
2022/11/25 06:47:43;;;;;;;8.40;2.30;;;;;;;;;;4902999;29;20053;-63
2022/11/25 06:50:13;;;;;;;5.15;2.42;;;;;;;;;;4894319;29;20486;-63
2022/11/25 06:52:43;;;;;;;9.20;2.85;;;;;;;;;;4880715;29;20065;-63
2022/11/25 06:55:13;;;;;;;5.15;2.13;;;;;;;;;;4895463;29;20056;-64
2022/11/25 06:57:43;;;;;;;7.90;2.60;;;;;;;;;;4899584;29;20418;-63
2022/11/25 07:00:14;;;;;;;8.10;2.20;;;;;;;;;;4918133;29;20059;-63
2022/11/25 07:02:45;;;;;;;10.82;2.58;;;;;;;;;;4891081;29;20072;-63
2022/11/25 07:05:17;;;;;;;8.73;2.30;;;;;;;;;;4893888;29;20060;-64
2022/11/25 07:07:47;;;;;;;6.28;2.50;;;;;;;;;;4921486;29;20516;-63
2022/11/25 07:10:17;;;;;;;11.38;2.88;;;;;;;;;;4950376;28;20197;-64
2022/11/25 07:12:47;;;;;;;6.85;2.22;;;;;;;;;;4956108;29;20051;-64
2022/11/25 07:15:17;;;;;;;6.47;2.80;;;;;;;;;;4959629;28;20399;-63
2022/11/25 07:17:47;;;;;;;5.63;2.40;;;;;;;;;;5014871;28;20516;-63
2022/11/25 07:20:17;;;;;;;7.65;2.45;;;;;;;;;;5015110;28;20057;-63
2022/11/25 07:22:46;;;;;;;10.85;2.92;;;;;;;;;;4994775;28;20432;-64
2022/11/25 07:25:16;;;;;;;12.73;3.50;;;;;;;;;;5014707;28;20050;-64
2022/11/25 07:27:47;;;;;;;3.58;2.00;;;;;;;;;;4998157;28;20537;-64
2022/11/25 07:30:17;;;;;;;6.35;2.20;;;;;;;;;;5014875;28;20065;-64
2022/11/25 07:33:07;;;;;;;4.88;2.33;;;;;;;;;;4991793;28;20065;-63
2022/11/25 07:35:37;;;;;;;6.30;2.58;;;;;;;;;;4992308;28;20062;-64
2022/11/25 07:38:07;;;;;;;9.18;2.88;;;;;;;;;;4999511;28;20064;-63
2022/11/25 07:40:37;;;;;;;5.28;2.50;;;;;;;;;;5031535;28;20068;-63
2022/11/25 07:43:07;;;;;;;7.45;2.35;;;;;;;;;;5031451;28;20053;-64
2022/11/25 07:45:38;;;;;;;6.20;2.30;;;;;;;;;;4991694;28;20050;-63
2022/11/25 07:48:11;;;;;;;4.25;2.20;;;;;;;;;;4971835;28;20495;-63
2022/11/25 07:50:41;;;;;;;6.38;2.50;;;;;;;;;;4952708;28;20051;-64
2022/11/25 07:53:11;;;;;;;5.28;2.10;;;;;;;;;;4952888;28;20059;-63
2022/11/25 07:55:41;;;;;;;11.00;3.22;;;;;;;;;;4952901;28;20059;-63
2022/11/25 07:58:12;;;;;;;10.15;2.50;;;;;;;;;;4937322;28;20055;-64
2022/11/25 08:00:42;;;;;;;11.73;2.38;;;;;;;;;;4952852;28;20066;-63
2022/11/25 08:03:12;;;;;;;5.72;2.53;;;;;;;;;;4964700;28;20065;-63
2022/11/25 08:05:42;;;;;;;5.35;2.20;;;;;;;;;;4987967;28;20093;-63
2022/11/25 08:08:12;;;;;;;7.70;2.65;;;;;;;;;;4971926;28;20575;-63
2022/11/25 08:10:42;;;;;;;8.63;2.63;;;;;;;;;;4981187;28;20062;-63
2022/11/25 08:13:12;;;;;;;6.40;3.20;;;;;;;;;;4958480;28;20434;-64
2022/11/25 08:15:42;;;;;;;12.85;2.92;;;;;;;;;;4991375;28;20084;-64
2022/11/25 08:18:12;;;;;;;6.63;2.70;;;;;;;;;;4991570;28;20057;-64
2022/11/25 08:20:42;;;;;;;5.20;2.55;;;;;;;;;;4943009;28;20054;-63
2022/11/25 08:23:13;;;;;;;8.57;2.80;;;;;;;;;;5000108;28;20101;-63
2022/11/25 08:25:44;;;;;;;5.25;2.88;;;;;;;;;;5013086;28;20061;-63
2022/11/25 08:28:18;;;;;;;6.55;2.95;;;;;;;;;;5011185;28;20064;-64
2022/11/25 08:30:48;;;;;;;11.05;3.08;;;;;;;;;;5050199;28;20049;-64
2022/11/25 08:33:18;;;;;;;9.02;3.13;;;;;;;;;;5034177;28;20064;-64
2022/11/25 08:35:54;;;;;;;8.88;2.85;;;;;;;;;;5050499;28;20053;-63
2022/11/25 08:38:26;;;;;;;7.95;2.92;;;;;;;;;;5050068;28;20052;-63
2022/11/25 08:40:57;;;;;;;7.00;3.03;;;;;;;;;;5037064;28;20048;-63
2022/11/25 08:43:28;;;;;;;14.98;3.03;;;;;;;;;;5069965;28;20504;-64
2022/11/25 08:45:58;;;;;;;6.22;3.25;;;;;;;;;;5090286;28;20055;-63
2022/11/25 08:48:28;;;;;;;8.32;3.53;;;;;;;;;;5090064;28;20056;-63
2022/11/25 08:50:58;;;;;;;8.05;3.00;;;;;;;;;;5089923;28;20040;-63
2022/11/25 08:53:28;;;;;;;6.28;2.83;;;;;;;;;;5090027;28;20424;-64
2022/11/25 08:55:58;;;;;;;8.68;3.33;;;;;;;;;;5090083;28;20044;-63
2022/11/25 08:58:29;;;;;;;7.55;3.38;;;;;;;;;;5089827;28;20075;-63
2022/11/25 09:01:00;;;;;;;9.65;2.70;;;;;;;;;;5090051;28;20047;-63
2022/11/25 09:03:35;;;;;;;7.10;3.38;;;;;;;;;;5090071;28;20039;-63
2022/11/25 09:06:07;;;;;;;5.55;2.40;;;;;;;;;;5073332;28;20056;-63
2022/11/25 09:08:38;;;;;;;5.78;2.70;;;;;;;;;;5102685;28;20067;-63
2022/11/25 09:11:10;;;;;;;4.95;2.85;;;;;;;;;;5036122;28;20041;-64
2022/11/25 09:13:40;;;;;;;5.53;2.80;;;;;;;;;;5009399;28;20038;-63
2022/11/25 09:16:11;;;;;;;4.93;2.60;;;;;;;;;;5009878;28;20050;-63
2022/11/25 09:18:41;;;;;;;6.80;2.80;;;;;;;;;;5009699;28;20069;-63
2022/11/25 09:21:15;;;;;;;8.23;2.90;;;;;;;;;;5009866;28;20046;-63
2022/11/25 09:23:45;;;;;;;6.53;3.17;;;;;;;;;;5009689;28;20066;-63
2022/11/25 09:26:24;;;;;;;5.75;3.30;;;;;;;;;;4960875;28;20058;-63
2022/11/25 09:28:55;;;;;;;6.03;2.95;;;;;;;;;;4957348;28;20038;-63
2022/11/25 09:31:25;;;;;;;8.32;3.10;;;;;;;;;;4989847;28;20087;-63
2022/11/25 09:33:56;;;;;;;5.97;2.83;;;;;;;;;;4989813;28;20062;-62
2022/11/25 09:36:26;;;;;;;6.40;3.22;;;;;;;;;;4989797;28;20062;-63
2022/11/25 09:38:56;;;;;;;12.20;3.13;;;;;;;;;;4989742;28;20058;-63
2022/11/25 09:48:24;;;;;;;7.45;3.22;;;;;;;;;;4992866;28;20054;-61
2022/11/25 09:51:23;;;;;;;6.30;3.38;;;;;;;;;;4915713;28;20054;-61
2022/11/25 09:54:00;;;;;;;7.00;3.92;;;;;;;;;;4931579;29;20064;-61
2022/11/25 09:56:35;;;;;;;7.90;3.15;;;;;;;;;;4902000;29;20064;-63
2022/11/25 09:59:38;;;;;;;17.50;3.55;;;;;;;;;;4931533;29;20052;-62
2022/11/25 10:02:24;;;;;;;7.93;3.45;;;;;;;;;;4931692;29;20059;-61
2022/11/25 10:05:22;;;;;;;5.95;3.42;;;;;;;;;;4915895;29;20507;-62
2022/11/25 10:08:02;;;;;;;15.43;4.13;;;;;;;;;;4912503;29;20076;-62
2022/11/25 10:10:44;;;;;;;12.77;4.30;;;;;;;;;;4912522;29;20060;-62
2022/11/25 10:13:26;;;;;;;8.80;3.28;;;;;;;;;;4912397;29;20048;-62
2022/11/25 10:16:01;;;;;;;6.82;3.63;;;;;;;;;;4927970;29;20059;-62
2022/11/25 10:18:47;;;;;;;9.18;3.88;;;;;;;;;;4912534;29;20091;-62
2022/11/25 10:21:17;;;;;;;8.40;3.40;;;;;;;;;;4912534;29;20071;-62
2022/11/25 10:23:47;;;;;;;9.55;3.65;;;;;;;;;;4912417;29;20060;-62
2022/11/25 10:26:22;;;;;;;10.43;3.65;;;;;;;;;;4960726;28;20070;-62
2022/11/25 10:29:00;;;;;;;10.25;3.22;;;;;;;;;;4995192;28;20053;-63
2022/11/25 10:31:35;;;;;;;8.50;3.25;;;;;;;;;;5087062;28;20044;-62
2022/11/25 10:34:39;;;;;;;14.43;3.42;;;;;;;;;;5058801;28;20399;-62
2022/11/25 10:37:24;;;;;;;8.98;2.75;;;;;;;;;;5059806;28;20047;-62
2022/11/25 10:39:55;;;;;;;7.45;2.83;;;;;;;;;;5068157;28;20520;-63
2022/11/25 10:42:27;;;;;;;7.45;3.83;;;;;;;;;;5051516;28;20056;-61
2022/11/25 10:44:58;;;;;;;8.45;4.00;;;;;;;;;;5034887;28;20056;-60
2022/11/25 10:48:11;;;;;;;8.10;3.63;;;;;;;;;;5018521;28;20052;-61
2022/11/25 10:51:00;;;;;;;12.68;4.15;;;;;;;;;;4989197;28;20062;-61
2022/11/25 10:53:31;;;;;;;8.40;3.47;;;;;;;;;;4989226;28;20038;-62
2022/11/25 10:56:09;;;;;;;8.13;2.90;;;;;;;;;;4988771;28;20059;-61
2022/11/25 10:58:41;;;;;;;8.00;2.35;;;;;;;;;;4989090;28;20045;-61
2022/11/25 11:01:26;;;;;;;6.90;2.60;;;;;;;;;;4988852;28;20442;-65
2022/11/25 11:04:13;;;;;;;5.95;2.35;;;;;;;;;;4988928;28;20057;-61
2022/11/25 11:06:48;;;;;;;8.48;2.85;;;;;;;;;;4988704;28;20058;-61
2022/11/25 11:09:39;;;;;;;9.73;3.80;;;;;;;;;;4992213;28;20493;-61
2022/11/25 11:12:23;;;;;;;6.07;2.58;;;;;;;;;;5029772;28;20054;-61
2022/11/25 11:15:28;;;;;;;9.35;2.72;;;;;;;;;;5015575;28;20097;-62
2022/11/25 11:18:24;;;;;;;9.55;2.63;;;;;;;;;;4998808;28;20061;-62
2022/11/25 11:20:59;;;;;;;7.60;3.65;;;;;;;;;;5001407;28;20057;-62
2022/11/25 11:23:30;;;;;;;6.15;2.45;;;;;;;;;;5111509;28;20036;-62
2022/11/25 11:26:03;;;;;;;6.22;2.33;;;;;;;;;;5075718;28;20109;-63
2022/11/25 11:28:35;;;;;;;7.30;2.72;;;;;;;;;;5047564;28;20058;-62
2022/11/25 11:31:14;;;;;;;11.80;3.08;;;;;;;;;;5114576;28;20035;-63
2022/11/25 11:33:47;;;;;;;9.25;2.47;;;;;;;;;;5114808;28;20039;-62
2022/11/25 11:36:39;;;;;;;7.22;2.75;;;;;;;;;;5114802;28;20039;-63
2022/11/25 11:39:25;;;;;;;6.07;2.95;;;;;;;;;;5114618;28;20044;-61
2022/11/25 11:42:13;;;;;;;7.20;2.80;;;;;;;;;;5114518;28;20043;-62
2022/11/25 11:45:24;;;;;;;5.28;2.95;;;;;;;;;;5078905;28;20054;-63
2022/11/25 11:48:03;;;;;;;7.13;3.22;;;;;;;;;;4984956;28;20133;-63
2022/11/25 11:50:40;;;;;;;9.38;3.20;;;;;;;;;;5016645;28;20093;-63
2022/11/25 11:53:26;;;;;;;14.05;6.25;;;;;;;;;;5019552;28;20502;-62
2022/11/25 11:56:23;;;;;;;7.78;3.13;;;;;;;;;;5018633;28;20508;-63
2022/11/25 11:59:18;;;;;;;6.28;2.67;;;;;;;;;;4952948;29;20063;-63
2022/11/25 12:02:24;;;;;;;4.30;2.42;;;;;;;;;;4953105;29;20062;-63
2022/11/25 12:05:10;;;;;;;7.10;2.40;;;;;;;;;;4952966;29;20423;-63
2022/11/25 12:07:46;;;;;;;6.55;2.40;;;;;;;;;;4914633;29;20093;-62
2022/11/25 12:10:26;;;;;;;5.78;2.50;;;;;;;;;;4898934;29;20052;-62
2022/11/25 12:13:18;;;;;;;6.43;2.17;;;;;;;;;;4914623;29;20063;-63
2022/11/25 12:16:00;;;;;;;5.32;2.45;;;;;;;;;;4883146;29;20131;-61
2022/11/25 12:19:02;;;;;;;7.05;2.40;;;;;;;;;;4914316;29;20064;-62
2022/11/25 12:21:38;;;;;;;5.18;2.78;;;;;;;;;;4914776;29;20047;-63
2022/11/25 12:24:41;;;;;;;6.18;2.70;;;;;;;;;;4917026;29;20067;-61
2022/11/25 12:27:17;;;;;;;5.35;2.50;;;;;;;;;;4933432;29;20107;-62
2022/11/25 12:29:56;;;;;;;8.20;2.83;;;;;;;;;;4933083;29;20066;-62
2022/11/25 12:32:40;;;;;;;7.20;2.65;;;;;;;;;;4917943;29;20075;-65
2022/11/25 12:35:10;;;;;;;;;;;;;;;;;;4950500;28;20136;-62
2022/11/25 12:37:50;;;;;;;5.82;2.80;;;;;;;;;;4997450;28;19921;-62
2022/11/25 12:40:29;;;;;;;5.10;2.60;;;;;;;;;;5030466;28;20057;-61
2022/11/25 12:43:37;;;;;;;7.18;3.00;;;;;;;;;;4990931;28;20051;-64
2022/11/25 12:46:40;;;;;;;5.80;2.30;;;;;;;;;;5026420;28;20053;-63
2022/11/25 12:49:26;;;;;;;6.22;2.47;;;;;;;;;;4923717;28;20058;-63
2022/11/25 12:52:18;;;;;;;4.43;2.60;;;;;;;;;;4971427;28;20046;-64
2022/11/25 12:54:57;;;;;;;6.43;2.45;;;;;;;;;;4971563;28;20182;-65
2022/11/25 12:58:04;;;;;;;4.55;2.60;;;;;;;;;;4971208;28;20558;-63
2022/11/25 13:00:56;;;;;;;5.15;2.70;;;;;;;;;;4971313;28;20063;-62
2022/11/25 13:03:50;;;;;;;9.13;2.38;;;;;;;;;;4971502;28;20047;-63
2022/11/25 13:06:43;;;;;;;9.15;2.50;;;;;;;;;;4954710;28;20063;-63
2022/11/25 13:09:28;;;;;;;3.92;2.60;;;;;;;;;;4967257;28;20054;-66
2022/11/25 13:12:05;;;;;;;5.32;2.13;;;;;;;;;;4935339;28;20534;-62
2022/11/25 13:14:43;;;;;;;4.20;2.05;;;;;;;;;;4951013;28;20523;-63
2022/11/25 13:17:15;;;;;;;3.78;2.13;;;;;;;;;;4957793;28;20503;-62
2022/11/25 13:19:45;;;;;;;;;;;;;;;;;;4972847;28;20070;-60
2022/11/25 13:22:22;;;;;;;5.03;1.92;;;;;;;;;;5000776;28;19928;-62
2022/11/25 13:24:53;;;;;;;3.38;1.85;;;;;;;;;;4993885;28;20050;-61
2022/11/25 13:27:46;;;;;;;4.15;1.90;;;;;;;;;;5056861;28;20056;-61
2022/11/25 13:30:32;;;;;;;3.50;1.98;;;;;;;;;;4956554;28;20053;-61
2022/11/25 13:33:23;;;;;;;3.15;1.67;;;;;;;;;;5006521;28;20062;-63
2022/11/25 13:35:55;;;;;;;8.65;4.32;;;;;;;;;;4970529;28;20073;-63
2022/11/25 13:38:57;;;;;;;5.45;2.00;;;;;;;;;;4969951;28;20080;-63
2022/11/25 13:41:41;;;;;;;6.07;2.50;;;;;;;;;;4985699;28;20070;-63
2022/11/25 13:44:39;;;;;;;5.72;2.25;;;;;;;;;;4938109;28;20546;-61
2022/11/25 13:47:38;;;;;;;4.55;2.08;;;;;;;;;;4916945;29;20048;-62
2022/11/25 13:50:15;;;;;;;4.63;1.80;;;;;;;;;;4891250;29;20055;-64
2022/11/25 13:52:59;;;;;;;5.15;2.20;;;;;;;;;;4962267;28;20733;-63
2022/11/25 13:55:34;;;;;;;4.35;1.92;;;;;;;;;;4946954;29;20067;-63
2022/11/25 13:58:20;;;;;;;6.68;2.88;;;;;;;;;;4939166;29;21028;-63
2022/11/25 14:00:50;;;;;;;7.10;4.28;;;;;;;;;;4936589;29;20060;-63
2022/11/25 14:03:20;;;;;;;4.63;2.10;;;;;;;;;;4946688;29;20051;-63
2022/11/25 14:06:26;;;;;;;6.13;2.15;;;;;;;;;;4936827;29;20500;-62
2022/11/25 14:09:04;;;;;;;5.45;2.20;;;;;;;;;;4965351;28;20513;-64
2022/11/25 14:11:49;;;;;;;5.97;2.10;;;;;;;;;;4969223;28;20059;-62
2022/11/25 14:14:34;;;;;;;4.40;2.05;;;;;;;;;;5008559;28;20057;-62
2022/11/25 14:17:22;;;;;;;7.03;2.15;;;;;;;;;;5009116;28;20072;-62
2022/11/25 14:20:29;;;;;;;3.92;2.05;;;;;;;;;;4992952;28;20054;-62
2022/11/25 14:23:34;;;;;;;6.90;2.30;;;;;;;;;;5019674;28;20057;-61
2022/11/25 14:26:11;;;;;;;5.30;2.38;;;;;;;;;;5056726;28;20052;-62
2022/11/25 14:29:29;;;;;;;4.55;2.05;;;;;;;;;;5091413;28;20040;-62
2022/11/25 14:32:04;;;;;;;4.10;2.00;;;;;;;;;;5002370;28;20084;-62
2022/11/25 14:35:10;;;;;;;6.03;2.55;;;;;;;;;;5028405;28;20053;-63
2022/11/25 14:37:59;;;;;;;5.93;2.03;;;;;;;;;;4948826;29;20165;-63
2022/11/25 14:40:37;;;;;;;6.78;2.50;;;;;;;;;;4915642;29;20055;-62
2022/11/25 14:43:22;;;;;;;5.07;2.20;;;;;;;;;;4944809;29;20071;-62
2022/11/25 14:46:09;;;;;;;;;;;;;;;;;;4943666;29;20062;-63
2022/11/25 14:48:39;;;;;;;4.53;1.85;;;;;;;;;;4945157;29;19922;-62
2022/11/25 14:51:13;;;;;;;5.80;1.80;;;;;;;;;;4927947;29;20047;-64
2022/11/25 14:53:46;;;;;;;6.38;2.90;;;;;;;;;;4927748;29;20420;-63
2022/11/25 14:56:33;;;;;;;9.30;3.00;;;;;;;;;;4927639;29;20067;-62
2022/11/25 14:59:06;;;;;;;7.70;2.25;;;;;;;;;;4943092;29;20055;-61
2022/11/25 15:01:39;;;;;;;5.45;2.10;;;;;;;;;;4944424;29;20055;-62
2022/11/25 15:04:12;;;;;;;7.28;3.08;;;;;;;;;;4923952;29;20052;-61
2022/11/25 15:06:52;;;;;;;3.58;1.80;;;;;;;;;;4925055;29;20401;-62
2022/11/25 15:09:27;;;;;;;3.15;1.63;;;;;;;;;;4957366;28;20426;-62
2022/11/25 15:12:10;;;;;;;5.55;1.88;;;;;;;;;;4965565;28;20066;-63
2022/11/25 15:14:46;;;;;;;6.88;1.80;;;;;;;;;;5037587;28;20107;-62
2022/11/25 15:17:36;;;;;;;5.68;2.70;;;;;;;;;;5061033;28;20049;-61
2022/11/25 15:20:16;;;;;;;3.75;1.50;;;;;;;;;;5061913;28;20045;-61
2022/11/25 15:22:51;;;;;;;2.80;1.60;;;;;;;;;;5059351;28;20064;-62
2022/11/25 15:25:21;;;;;;;4.10;1.75;;;;;;;;;;5059275;28;20058;-62
2022/11/25 15:27:53;;;;;;;6.38;2.28;;;;;;;;;;5059098;28;20045;-62
2022/11/25 15:30:28;;;;;;;6.97;2.30;;;;;;;;;;5059779;28;20535;-62
2022/11/25 15:32:58;;;;;;;2.78;1.48;;;;;;;;;;5059462;28;21202;-63
2022/11/25 15:35:28;;;;;;;5.28;1.75;;;;;;;;;;5060399;28;20052;-62
2022/11/25 15:37:59;;;;;;;3.97;1.30;;;;;;;;;;5040729;28;20053;-62
2022/11/25 15:40:39;;;;;;;4.50;1.63;;;;;;;;;;5041728;28;20056;-63
2022/11/25 15:43:30;;;;;;;3.70;2.17;;;;;;;;;;5062781;28;20056;-64
2022/11/25 15:46:03;;;;;;;7.10;1.60;;;;;;;;;;5050775;28;20192;-62
2022/11/25 15:48:40;;;;;;;3.83;1.50;;;;;;;;;;5078674;28;20161;-63
2022/11/25 15:51:37;;;;;;;3.05;1.17;;;;;;;;;;5076739;28;20049;-62